createdAt,value
2022-09-21T00:00:41.778Z,7.73
2022-09-21T00:01:42.273Z,7.74
2022-09-21T00:02:42.208Z,7.78
2022-09-21T00:03:41.773Z,7.83
2022-09-21T00:04:41.757Z,7.87
2022-09-21T00:05:42.218Z,7.92
2022-09-21T00:06:41.746Z,7.91
2022-09-21T00:07:42.225Z,7.91
2022-09-21T00:08:41.726Z,7.91
2022-09-21T00:09:41.726Z,7.87
2022-09-21T00:10:41.735Z,7.87
2022-09-21T00:11:41.707Z,7.86
2022-09-21T00:12:41.727Z,7.81
2022-09-21T00:13:41.702Z,7.81
2022-09-21T00:14:41.700Z,7.78
2022-09-21T00:15:41.685Z,7.74
2022-09-21T00:16:41.707Z,7.74
2022-09-21T00:17:41.683Z,7.74
2022-09-21T00:18:41.663Z,7.71
2022-09-21T00:19:41.653Z,7.69
2022-09-21T00:20:41.654Z,7.71
2022-09-21T00:21:41.641Z,7.68
2022-09-21T00:22:41.742Z,7.66
2022-09-21T00:23:41.622Z,7.68
2022-09-21T00:24:41.633Z,7.66
2022-09-21T00:25:41.624Z,7.69
2022-09-21T00:26:41.622Z,7.66
2022-09-21T00:27:41.631Z,7.69
2022-09-21T00:28:41.601Z,7.66
2022-09-21T00:29:41.591Z,7.62
2022-09-21T00:30:41.601Z,7.62
2022-09-21T00:31:41.605Z,7.60
2022-09-21T00:32:41.591Z,7.55
2022-09-21T00:33:41.564Z,7.54
2022-09-21T00:34:41.552Z,7.54
2022-09-21T00:35:41.540Z,7.49
2022-09-21T00:36:41.548Z,7.46
2022-09-21T00:37:41.711Z,7.43
2022-09-21T00:38:41.528Z,7.44
2022-09-21T00:39:41.519Z,7.46
2022-09-21T00:40:41.519Z,7.44
2022-09-21T00:41:41.507Z,7.42
2022-09-21T00:42:41.529Z,7.42
2022-09-21T00:43:41.637Z,7.39
2022-09-21T00:44:41.489Z,7.40
2022-09-21T00:45:41.509Z,7.36
2022-09-21T00:46:41.478Z,7.40
2022-09-21T00:47:41.466Z,7.37
2022-09-21T00:48:41.477Z,7.37
2022-09-21T00:49:41.456Z,7.40
2022-09-21T00:50:41.454Z,7.36
2022-09-21T00:51:41.436Z,7.37
2022-09-21T00:52:41.445Z,7.36
2022-09-21T00:53:41.475Z,7.39
2022-09-21T00:54:41.426Z,7.36
2022-09-21T00:55:41.413Z,7.31
2022-09-21T00:56:41.426Z,7.29
2022-09-21T00:57:41.555Z,7.29
2022-09-21T00:58:41.424Z,7.26
2022-09-21T00:59:41.400Z,7.29
2022-09-21T01:00:41.509Z,7.31
2022-09-21T01:01:41.373Z,7.34
2022-09-21T01:02:41.372Z,7.37
2022-09-21T01:03:41.585Z,7.34
2022-09-21T01:04:41.425Z,7.36
2022-09-21T01:05:41.364Z,7.36
2022-09-21T01:06:41.351Z,7.39
2022-09-21T01:07:41.523Z,7.43
2022-09-21T01:08:41.353Z,7.42
2022-09-21T01:09:41.357Z,7.46
2022-09-21T01:10:41.331Z,7.49
2022-09-21T01:11:41.341Z,7.52
2022-09-21T01:12:41.319Z,7.49
2022-09-21T01:13:41.429Z,7.49
2022-09-21T01:14:41.290Z,7.50
2022-09-21T01:15:41.288Z,7.55
2022-09-21T01:16:41.494Z,7.60
2022-09-21T01:17:41.271Z,7.61
2022-09-21T01:18:41.450Z,7.55
2022-09-21T01:19:41.459Z,7.58
2022-09-21T01:20:41.469Z,7.62
2022-09-21T01:21:41.482Z,7.57
2022-09-21T01:22:41.619Z,7.57
2022-09-21T01:23:41.257Z,7.58
2022-09-21T01:24:41.224Z,7.58
2022-09-21T01:25:41.250Z,7.60
2022-09-21T01:26:41.220Z,7.58
2022-09-21T01:27:41.213Z,7.60
2022-09-21T01:28:41.225Z,7.62
2022-09-21T01:29:41.337Z,7.57
2022-09-21T01:30:43.674Z,7.57
2022-09-21T01:31:41.276Z,7.54
2022-09-21T01:32:41.560Z,7.50
2022-09-21T01:33:41.176Z,7.46
2022-09-21T01:34:41.174Z,7.42
2022-09-21T01:35:41.158Z,7.36
2022-09-21T01:36:41.156Z,7.31
2022-09-21T01:37:41.776Z,7.26
2022-09-21T01:38:41.597Z,7.29
2022-09-21T01:39:41.175Z,7.26
2022-09-21T01:40:41.177Z,7.28
2022-09-21T01:41:41.114Z,7.19
2022-09-21T01:42:41.138Z,7.13
2022-09-21T01:43:41.094Z,7.11
2022-09-21T01:44:41.095Z,7.10
2022-09-21T01:45:41.129Z,7.11
2022-09-21T01:46:41.073Z,7.13
2022-09-21T01:47:41.092Z,7.13
2022-09-21T01:48:41.072Z,7.08
2022-09-21T01:49:41.483Z,7.07
2022-09-21T01:50:41.052Z,7.06
2022-09-21T01:51:41.063Z,6.97
2022-09-21T01:52:41.841Z,6.91
2022-09-21T01:53:41.712Z,6.85
2022-09-21T01:54:41.039Z,6.86
2022-09-21T01:55:41.032Z,6.85
2022-09-21T01:56:41.514Z,6.82
2022-09-21T01:57:41.362Z,6.82
2022-09-21T01:58:41.005Z,6.75
2022-09-21T01:59:41.001Z,6.74
2022-09-21T02:00:41.037Z,6.67
2022-09-21T02:01:41.953Z,6.67
2022-09-21T02:02:41.909Z,6.73
2022-09-21T02:03:40.969Z,6.75
2022-09-21T02:04:40.971Z,6.74
2022-09-21T02:05:41.878Z,6.74
2022-09-21T02:06:40.948Z,6.79
2022-09-21T02:07:41.590Z,6.78
2022-09-21T02:08:41.847Z,6.85
2022-09-21T02:09:40.948Z,6.86
2022-09-21T02:10:40.967Z,6.83
2022-09-21T02:11:41.787Z,6.83
2022-09-21T02:12:41.014Z,6.83
2022-09-21T02:13:41.878Z,6.83
2022-09-21T02:14:41.015Z,6.81
2022-09-21T02:15:40.896Z,6.78
2022-09-21T02:16:40.887Z,6.81
2022-09-21T02:17:40.876Z,6.82
2022-09-21T02:18:40.883Z,6.81
2022-09-21T02:19:40.885Z,6.81
2022-09-21T02:20:40.883Z,6.78
2022-09-21T02:21:40.884Z,6.75
2022-09-21T02:22:40.895Z,6.70
2022-09-21T02:23:41.064Z,6.70
2022-09-21T02:24:40.857Z,6.73
2022-09-21T02:25:41.081Z,6.67
2022-09-21T02:26:40.848Z,6.67
2022-09-21T02:27:40.813Z,6.71
2022-09-21T02:28:40.807Z,6.64
2022-09-21T02:29:41.104Z,6.64
2022-09-21T02:30:40.813Z,6.64
2022-09-21T02:31:41.381Z,6.63
2022-09-21T02:32:40.794Z,6.65
2022-09-21T02:33:40.849Z,6.63
2022-09-21T02:34:41.332Z,6.64
2022-09-21T02:35:41.673Z,6.61
2022-09-21T02:36:40.741Z,6.61
2022-09-21T02:37:40.752Z,6.56
2022-09-21T02:38:40.740Z,6.55
2022-09-21T02:39:40.749Z,6.56
2022-09-21T02:40:41.590Z,6.55
2022-09-21T02:41:41.751Z,6.57
2022-09-21T02:42:40.860Z,6.57
2022-09-21T02:43:41.560Z,6.60
2022-09-21T02:44:41.241Z,6.55
2022-09-21T02:45:40.791Z,6.52
2022-09-21T02:46:41.274Z,6.57
2022-09-21T02:47:40.818Z,6.55
2022-09-21T02:48:41.589Z,6.57
2022-09-21T02:49:41.498Z,6.60
2022-09-21T02:50:40.711Z,6.63
2022-09-21T02:51:40.681Z,6.64
2022-09-21T02:52:40.658Z,6.67
2022-09-21T02:53:40.647Z,6.65
2022-09-21T02:54:40.698Z,6.65
2022-09-21T02:55:40.707Z,6.63
2022-09-21T02:56:40.855Z,6.57
2022-09-21T02:57:40.866Z,6.61
2022-09-21T02:58:40.866Z,6.55
2022-09-21T02:59:40.875Z,6.53
2022-09-21T03:00:40.982Z,6.52
2022-09-21T03:01:40.754Z,6.55
2022-09-21T03:02:40.599Z,6.52
2022-09-21T03:03:40.579Z,6.49
2022-09-21T03:04:40.576Z,6.50
2022-09-21T03:05:40.583Z,6.49
2022-09-21T03:06:40.554Z,6.49
2022-09-21T03:07:40.564Z,6.52
2022-09-21T03:08:40.541Z,6.52
2022-09-21T03:09:40.545Z,6.47
2022-09-21T03:10:40.552Z,6.46
2022-09-21T03:11:40.601Z,6.47
2022-09-21T03:12:40.522Z,6.47
2022-09-21T03:13:40.579Z,6.50
2022-09-21T03:14:40.510Z,6.46
2022-09-21T03:15:40.620Z,6.49
2022-09-21T03:16:40.491Z,6.47
2022-09-21T03:17:40.512Z,6.49
2022-09-21T03:18:40.488Z,6.49
2022-09-21T03:19:40.522Z,6.47
2022-09-21T03:20:40.478Z,6.52
2022-09-21T03:21:44.444Z,6.50
2022-09-21T03:22:40.450Z,6.49
2022-09-21T03:23:40.439Z,6.50
2022-09-21T03:24:40.724Z,6.49
2022-09-21T03:25:40.449Z,6.50
2022-09-21T03:26:40.420Z,6.46
2022-09-21T03:27:40.415Z,6.46
2022-09-21T03:28:40.449Z,6.46
2022-09-21T03:29:40.397Z,6.43
2022-09-21T03:30:40.437Z,6.45
2022-09-21T03:31:40.395Z,6.43
2022-09-21T03:32:40.378Z,6.40
2022-09-21T03:33:40.366Z,6.43
2022-09-21T03:34:40.365Z,6.45
2022-09-21T03:35:40.377Z,6.45
2022-09-21T03:36:40.346Z,6.42
2022-09-21T03:37:41.460Z,6.38
2022-09-21T03:38:40.790Z,6.38
2022-09-21T03:39:40.333Z,6.40
2022-09-21T03:40:40.362Z,6.34
2022-09-21T03:41:40.326Z,6.31
2022-09-21T03:42:40.303Z,6.31
2022-09-21T03:43:40.304Z,6.28
2022-09-21T03:44:40.432Z,6.28
2022-09-21T03:45:40.973Z,6.28
2022-09-21T03:46:40.311Z,6.27
2022-09-21T03:47:40.284Z,6.27
2022-09-21T03:48:40.272Z,6.21
2022-09-21T03:49:40.282Z,6.24
2022-09-21T03:50:40.283Z,6.21
2022-09-21T03:51:40.385Z,6.18
2022-09-21T03:52:40.242Z,6.16
2022-09-21T03:53:40.242Z,6.12
2022-09-21T03:54:40.241Z,6.16
2022-09-21T03:55:40.240Z,6.18
2022-09-21T03:56:40.221Z,6.18
2022-09-21T03:57:40.230Z,6.19
2022-09-21T03:58:40.210Z,6.19
2022-09-21T03:59:40.210Z,6.24
2022-09-21T04:00:40.241Z,6.19
2022-09-21T04:01:40.305Z,6.18
2022-09-21T04:02:40.198Z,6.18
2022-09-21T04:03:40.340Z,6.15
2022-09-21T04:04:40.358Z,6.15
2022-09-21T04:05:40.179Z,6.13
2022-09-21T04:06:40.159Z,6.13
2022-09-21T04:07:40.148Z,6.16
2022-09-21T04:08:40.147Z,6.16
2022-09-21T04:09:40.309Z,6.19
2022-09-21T04:10:40.148Z,6.19
2022-09-21T04:11:40.129Z,6.24
2022-09-21T04:12:40.118Z,6.21
2022-09-21T04:13:40.107Z,6.25
2022-09-21T04:14:40.109Z,6.28
2022-09-21T04:15:40.114Z,6.28
2022-09-21T04:16:40.131Z,6.31
2022-09-21T04:17:40.086Z,6.31
2022-09-21T04:18:40.446Z,6.28
2022-09-21T04:19:40.075Z,6.37
2022-09-21T04:20:40.595Z,6.34
2022-09-21T04:21:40.065Z,6.38
2022-09-21T04:22:43.481Z,6.35
2022-09-21T04:23:40.044Z,6.30
2022-09-21T04:24:40.034Z,6.27
2022-09-21T04:25:40.031Z,6.25
2022-09-21T04:26:40.053Z,6.21
2022-09-21T04:27:40.413Z,6.16
2022-09-21T04:28:40.006Z,6.12
2022-09-21T04:29:40.063Z,6.11
2022-09-21T04:30:40.097Z,6.12
2022-09-21T04:31:40.043Z,6.11
2022-09-21T04:32:40.660Z,6.08
2022-09-21T04:33:39.993Z,6.03
2022-09-21T04:34:39.975Z,6.00
2022-09-21T04:35:39.961Z,6.02
2022-09-21T04:36:39.972Z,5.97
2022-09-21T04:37:39.968Z,5.97
2022-09-21T04:38:39.942Z,5.97
2022-09-21T04:39:39.959Z,5.98
2022-09-21T04:40:40.549Z,5.98
2022-09-21T04:41:40.813Z,5.97
2022-09-21T04:42:40.820Z,6.02
2022-09-21T04:43:39.918Z,6.02
2022-09-21T04:44:39.909Z,6.05
2022-09-21T04:45:39.913Z,6.03
2022-09-21T04:46:40.008Z,6.08
2022-09-21T04:47:39.909Z,6.08
2022-09-21T04:48:40.147Z,6.12
2022-09-21T04:49:40.038Z,6.09
2022-09-21T04:50:39.960Z,6.11
2022-09-21T04:51:39.900Z,6.11
2022-09-21T04:52:39.898Z,6.13
2022-09-21T04:53:39.867Z,6.12
2022-09-21T04:54:39.836Z,6.12
2022-09-21T04:55:39.838Z,6.15
2022-09-21T04:56:39.844Z,6.15
2022-09-21T04:57:39.825Z,6.15
2022-09-21T04:58:39.814Z,6.13
2022-09-21T04:59:39.805Z,6.13
2022-09-21T05:00:39.794Z,6.12
2022-09-21T05:01:39.867Z,6.12
2022-09-21T05:02:39.784Z,6.15
2022-09-21T05:03:39.991Z,6.12
2022-09-21T05:04:39.941Z,6.13
2022-09-21T05:05:39.789Z,6.08
2022-09-21T05:06:39.783Z,6.05
2022-09-21T05:07:39.763Z,6.05
2022-09-21T05:08:39.743Z,6.02
2022-09-21T05:09:39.873Z,6.00
2022-09-21T05:10:39.884Z,5.95
2022-09-21T05:11:39.742Z,5.93
2022-09-21T05:12:41.115Z,5.94
2022-09-21T05:13:39.719Z,5.98
2022-09-21T05:14:39.701Z,5.97
2022-09-21T05:15:39.721Z,6.03
2022-09-21T05:16:39.712Z,6.08
2022-09-21T05:17:39.819Z,6.06
2022-09-21T05:18:39.681Z,6.09
2022-09-21T05:19:40.145Z,6.11
2022-09-21T05:20:39.688Z,6.11
2022-09-21T05:21:39.749Z,6.13
2022-09-21T05:22:39.689Z,6.16
2022-09-21T05:23:39.652Z,6.19
2022-09-21T05:24:39.667Z,6.15
2022-09-21T05:25:39.668Z,6.16
2022-09-21T05:26:39.649Z,6.18
2022-09-21T05:27:39.618Z,6.11
2022-09-21T05:28:40.358Z,6.11
2022-09-21T05:29:39.607Z,6.09
2022-09-21T05:30:47.820Z,6.06
2022-09-21T05:31:39.798Z,6.06
2022-09-21T05:32:39.587Z,6.02
2022-09-21T05:33:39.577Z,5.98
2022-09-21T05:34:39.576Z,5.95
2022-09-21T05:35:39.567Z,5.93
2022-09-21T05:36:39.593Z,5.93
2022-09-21T05:37:39.554Z,5.90
2022-09-21T05:38:39.555Z,5.88
2022-09-21T05:39:39.545Z,5.90
2022-09-21T05:40:39.596Z,5.88
2022-09-21T05:41:39.535Z,5.88
2022-09-21T05:42:39.554Z,5.87
2022-09-21T05:43:39.589Z,5.88
2022-09-21T05:44:39.513Z,5.93
2022-09-21T05:45:39.771Z,5.95
2022-09-21T05:46:39.507Z,6.08
2022-09-21T05:47:39.504Z,6.13
2022-09-21T05:48:39.493Z,6.15
2022-09-21T05:49:39.483Z,6.21
2022-09-21T05:50:39.473Z,6.24
2022-09-21T05:51:39.484Z,6.28
2022-09-21T05:52:39.492Z,6.38
2022-09-21T05:53:39.462Z,6.45
2022-09-21T05:54:39.482Z,6.50
2022-09-21T05:55:39.874Z,6.55
2022-09-21T05:56:39.883Z,6.64
2022-09-21T05:57:39.471Z,6.67
2022-09-21T05:58:39.430Z,6.75
2022-09-21T05:59:39.431Z,6.81
2022-09-21T06:00:39.440Z,6.85
2022-09-21T06:01:39.473Z,6.91
2022-09-21T06:02:39.458Z,6.96
2022-09-21T06:03:39.521Z,7.00
2022-09-21T06:04:39.399Z,7.08
2022-09-21T06:05:39.449Z,7.10
2022-09-21T06:06:39.468Z,7.19
2022-09-21T06:07:39.770Z,7.21
2022-09-21T06:08:39.372Z,7.26
2022-09-21T06:09:43.071Z,7.33
2022-09-21T06:10:39.378Z,7.39
2022-09-21T06:11:39.379Z,7.42
2022-09-21T06:12:39.372Z,7.44
2022-09-21T06:13:39.366Z,7.52
2022-09-21T06:14:40.014Z,7.61
2022-09-21T06:15:39.307Z,7.69
2022-09-21T06:16:40.168Z,7.80
2022-09-21T06:17:39.306Z,7.83
2022-09-21T06:18:39.296Z,7.88
2022-09-21T06:19:40.254Z,7.92
2022-09-21T06:20:40.187Z,8.02
2022-09-21T06:21:39.445Z,8.05
2022-09-21T06:22:40.259Z,8.10
2022-09-21T06:23:40.155Z,8.17
2022-09-21T06:24:39.544Z,8.23
2022-09-21T06:25:40.215Z,8.23
2022-09-21T06:26:39.255Z,8.29
2022-09-21T06:27:40.274Z,8.34
2022-09-21T06:28:39.234Z,8.42
2022-09-21T06:29:40.092Z,8.49
2022-09-21T06:30:39.282Z,8.56
2022-09-21T06:31:39.212Z,8.60
2022-09-21T06:32:40.052Z,8.63
2022-09-21T06:33:39.203Z,8.70
2022-09-21T06:34:39.203Z,8.80
2022-09-21T06:35:39.216Z,8.85
2022-09-21T06:36:39.180Z,9.01
2022-09-21T06:37:39.182Z,8.98
2022-09-21T06:38:39.161Z,8.96
2022-09-21T06:39:39.433Z,8.90
2022-09-21T06:40:39.494Z,8.95
2022-09-21T06:41:39.572Z,9.06
2022-09-21T06:42:39.588Z,9.16
2022-09-21T06:43:39.592Z,9.24
2022-09-21T06:44:39.670Z,9.32
2022-09-21T06:45:39.135Z,9.45
2022-09-21T06:46:39.790Z,9.51
2022-09-21T06:47:39.412Z,9.59
2022-09-21T06:48:39.807Z,9.63
2022-09-21T06:49:42.490Z,9.77
2022-09-21T06:50:39.910Z,9.81
2022-09-21T06:51:40.029Z,9.90
2022-09-21T06:52:40.058Z,10.03
2022-09-21T06:53:39.058Z,10.14
2022-09-21T06:54:39.058Z,10.16
2022-09-21T06:55:39.063Z,10.26
2022-09-21T06:56:39.146Z,10.34
2022-09-21T06:57:39.158Z,10.41
2022-09-21T06:58:39.288Z,10.54
2022-09-21T06:59:39.288Z,10.60
2022-09-21T07:00:39.297Z,10.61
2022-09-21T07:01:39.528Z,10.65
2022-09-21T07:02:39.388Z,10.78
2022-09-21T07:03:39.535Z,10.80
2022-09-21T07:04:39.069Z,10.79
2022-09-21T07:05:39.436Z,10.78
2022-09-21T07:06:39.410Z,10.67
2022-09-21T07:07:39.631Z,10.64
2022-09-21T07:10:39.023Z,10.73
2022-09-21T07:11:38.955Z,10.90
2022-09-21T07:12:38.964Z,11.01
2022-09-21T07:13:39.035Z,11.11
2022-09-21T07:14:38.984Z,11.15
2022-09-21T07:15:39.192Z,11.27
2022-09-21T07:16:39.019Z,11.36
2022-09-21T07:17:39.204Z,11.43
2022-09-21T07:18:43.469Z,11.48
2022-09-21T07:19:39.451Z,11.58
2022-09-21T07:20:38.894Z,11.67
2022-09-21T07:21:38.876Z,11.71
2022-09-21T07:22:39.444Z,11.73
2022-09-21T07:23:38.884Z,11.84
2022-09-21T07:24:38.856Z,11.87
2022-09-21T07:25:38.852Z,11.95
2022-09-21T07:26:38.842Z,11.99
2022-09-21T07:27:39.695Z,12.05
2022-09-21T07:28:38.831Z,12.08
2022-09-21T07:29:38.825Z,12.15
2022-09-21T07:30:38.818Z,12.15
2022-09-21T07:31:38.898Z,12.18
2022-09-21T07:32:38.824Z,12.17
2022-09-21T07:33:38.792Z,12.26
2022-09-21T07:34:38.791Z,12.30
2022-09-21T07:35:38.779Z,12.35
2022-09-21T07:36:38.771Z,12.43
2022-09-21T07:37:38.779Z,12.50
2022-09-21T07:38:38.757Z,12.58
2022-09-21T07:39:38.759Z,12.62
2022-09-21T07:40:39.049Z,12.71
2022-09-21T07:41:38.760Z,12.66
2022-09-21T07:42:39.009Z,12.61
2022-09-21T07:43:39.026Z,12.66
2022-09-21T07:44:39.049Z,12.80
2022-09-21T07:45:39.081Z,12.88
2022-09-21T07:46:42.768Z,12.99
2022-09-21T07:47:38.801Z,13.09
2022-09-21T07:48:38.715Z,13.13
2022-09-21T07:49:38.688Z,13.13
2022-09-21T07:50:38.688Z,13.06
2022-09-21T07:51:38.837Z,13.04
2022-09-21T07:52:38.837Z,13.06
2022-09-21T07:53:38.837Z,13.14
2022-09-21T07:54:38.986Z,13.21
2022-09-21T07:55:38.907Z,13.27
2022-09-21T07:56:38.937Z,13.39
2022-09-21T07:57:38.868Z,13.46
2022-09-21T07:58:39.086Z,13.51
2022-09-21T07:59:38.925Z,13.64
2022-09-21T08:00:39.120Z,13.63
2022-09-21T08:01:39.274Z,13.64
2022-09-21T08:02:42.652Z,13.68
2022-09-21T08:03:38.825Z,13.85
2022-09-21T08:04:39.315Z,13.91
2022-09-21T08:05:38.615Z,13.98
2022-09-21T08:06:38.588Z,13.98
2022-09-21T08:07:38.587Z,14.04
2022-09-21T08:08:38.573Z,14.09
2022-09-21T08:09:38.574Z,14.09
2022-09-21T08:10:38.552Z,14.13
2022-09-21T08:11:38.554Z,14.22
2022-09-21T08:12:38.568Z,14.19
2022-09-21T08:13:38.564Z,14.21
2022-09-21T08:14:38.572Z,14.34
2022-09-21T08:15:49.391Z,14.41
2022-09-21T08:16:38.657Z,14.45
2022-09-21T08:17:38.642Z,14.56
2022-09-21T08:18:38.656Z,14.61
2022-09-21T08:19:38.653Z,14.67
2022-09-21T08:20:38.664Z,14.77
2022-09-21T08:21:38.472Z,14.61
2022-09-21T08:22:38.833Z,14.67
2022-09-21T08:23:38.463Z,14.71
2022-09-21T08:24:38.481Z,14.77
2022-09-21T08:25:38.652Z,14.79
2022-09-21T08:26:38.660Z,14.86
2022-09-21T08:27:38.664Z,14.95
2022-09-21T08:28:38.504Z,14.99
2022-09-21T08:29:38.527Z,15.08
2022-09-21T08:30:38.529Z,15.11
2022-09-21T08:31:38.579Z,15.01
2022-09-21T08:32:50.900Z,14.87
2022-09-21T08:33:38.701Z,14.93
2022-09-21T08:34:38.725Z,15.01
2022-09-21T08:35:38.564Z,14.92
2022-09-21T08:36:38.521Z,14.92
2022-09-21T08:37:38.968Z,14.95
2022-09-21T08:38:38.889Z,15.08
2022-09-21T08:39:38.572Z,15.10
2022-09-21T08:40:38.410Z,15.01
2022-09-21T08:41:38.358Z,15.04
2022-09-21T08:42:38.380Z,14.99
2022-09-21T08:43:38.400Z,15.14
2022-09-21T08:44:38.391Z,15.23
2022-09-21T08:45:38.420Z,15.32
2022-09-21T08:46:38.681Z,15.29
2022-09-21T08:47:38.407Z,15.36
2022-09-21T08:48:38.317Z,15.54
2022-09-21T08:49:38.269Z,15.69
2022-09-21T08:50:38.828Z,15.81
2022-09-21T08:51:38.839Z,15.88
2022-09-21T08:52:38.259Z,15.87
2022-09-21T08:53:38.258Z,15.80
2022-09-21T08:54:38.438Z,15.70
2022-09-21T08:55:38.648Z,15.65
2022-09-21T08:57:01.024Z,15.48
2022-09-21T08:57:38.698Z,15.40
2022-09-21T08:58:38.267Z,15.17
2022-09-21T08:59:39.126Z,15.27
2022-09-21T09:00:38.323Z,15.35
2022-09-21T09:01:38.331Z,15.50
2022-09-21T09:02:38.345Z,15.47
2022-09-21T09:03:41.177Z,15.38
2022-09-21T09:04:38.407Z,15.40
2022-09-21T09:05:38.537Z,15.35
2022-09-21T09:06:38.366Z,15.20
2022-09-21T09:07:38.157Z,15.35
2022-09-21T09:08:38.756Z,15.58
2022-09-21T09:09:38.158Z,15.83
2022-09-21T09:10:38.165Z,15.95
2022-09-21T09:11:38.195Z,15.93
2022-09-21T09:12:38.165Z,15.81
2022-09-21T09:13:38.198Z,15.65
2022-09-21T09:14:38.205Z,15.73
2022-09-21T09:15:38.186Z,15.91
2022-09-21T09:16:38.302Z,15.99
2022-09-21T09:17:38.186Z,16.10
2022-09-21T09:18:42.730Z,16.09
2022-09-21T09:19:38.225Z,16.08
2022-09-21T09:20:38.232Z,16.05
2022-09-21T09:21:38.224Z,16.10
2022-09-21T09:22:38.435Z,16.18
2022-09-21T09:23:38.064Z,16.32
2022-09-21T09:24:38.243Z,16.49
2022-09-21T09:25:38.043Z,16.67
2022-09-21T09:26:39.503Z,16.83
2022-09-21T09:27:38.454Z,16.92
2022-09-21T09:28:38.054Z,16.95
2022-09-21T09:29:38.473Z,17.01
2022-09-21T09:30:38.485Z,17.04
2022-09-21T09:31:38.392Z,17.13
2022-09-21T09:32:38.304Z,17.17
2022-09-21T09:33:38.096Z,17.16
2022-09-21T09:34:37.974Z,17.02
2022-09-21T09:35:37.973Z,16.97
2022-09-21T09:36:57.262Z,16.98
2022-09-21T09:37:37.954Z,17.06
2022-09-21T09:38:37.943Z,17.14
2022-09-21T09:39:37.953Z,17.25
2022-09-21T09:40:37.985Z,17.20
2022-09-21T09:41:37.932Z,17.01
2022-09-21T09:42:37.923Z,16.95
2022-09-21T09:43:37.943Z,16.80
2022-09-21T09:44:37.972Z,16.87
2022-09-21T09:45:37.970Z,16.91
2022-09-21T09:46:38.116Z,16.97
2022-09-21T09:47:38.009Z,17.14
2022-09-21T09:48:37.902Z,17.39
2022-09-21T09:49:37.893Z,17.24
2022-09-21T09:50:37.912Z,17.31
2022-09-21T09:51:38.011Z,17.38
2022-09-21T09:52:37.861Z,17.54
2022-09-21T09:53:37.852Z,17.54
2022-09-21T09:54:37.919Z,17.04
2022-09-21T09:55:38.113Z,16.72
2022-09-21T09:56:38.091Z,16.44
2022-09-21T09:57:38.079Z,16.32
2022-09-21T09:58:38.101Z,16.46
2022-09-21T09:59:38.121Z,16.70
2022-09-21T10:00:38.109Z,16.94
2022-09-21T10:01:38.185Z,17.17
2022-09-21T10:02:38.120Z,17.30
2022-09-21T10:03:38.131Z,17.39
2022-09-21T10:04:38.193Z,17.49
2022-09-21T10:05:37.909Z,17.50
2022-09-21T10:06:41.182Z,17.59
2022-09-21T10:07:38.170Z,17.63
2022-09-21T10:08:37.739Z,17.78
2022-09-21T10:09:38.179Z,17.94
2022-09-21T10:10:37.750Z,17.97
2022-09-21T10:11:37.751Z,17.79
2022-09-21T10:12:37.779Z,17.32
2022-09-21T10:13:37.719Z,17.25
2022-09-21T10:14:37.970Z,17.34
2022-09-21T10:15:38.008Z,17.53
2022-09-21T10:16:37.768Z,17.84
2022-09-21T10:17:37.669Z,17.83
2022-09-21T10:18:38.218Z,17.46
2022-09-21T10:19:38.243Z,17.25
2022-09-21T10:20:38.010Z,17.37
2022-09-21T10:21:38.219Z,17.69
2022-09-21T10:22:38.018Z,17.99
2022-09-21T10:23:37.749Z,18.21
2022-09-21T10:24:37.818Z,18.38
2022-09-21T10:25:40.168Z,18.74
2022-09-21T10:26:38.517Z,19.01
2022-09-21T10:27:37.632Z,19.45
2022-09-21T10:28:37.680Z,19.84
2022-09-21T10:29:37.667Z,20.41
2022-09-21T10:30:37.669Z,20.80
2022-09-21T10:31:37.713Z,21.14
2022-09-21T10:32:38.056Z,21.50
2022-09-21T10:33:37.686Z,21.82
2022-09-21T10:34:37.907Z,21.96
2022-09-21T10:35:38.127Z,22.01
2022-09-21T10:36:38.128Z,22.23
2022-09-21T10:37:38.127Z,22.38
2022-09-21T10:38:38.128Z,22.21
2022-09-21T10:39:37.854Z,22.21
2022-09-21T10:40:37.794Z,22.28
2022-09-21T10:41:38.146Z,22.56
2022-09-21T10:42:38.346Z,22.76
2022-09-21T10:43:41.165Z,22.99
2022-09-21T10:44:37.787Z,22.99
2022-09-21T10:45:37.557Z,23.03
2022-09-21T10:46:37.680Z,23.04
2022-09-21T10:47:37.596Z,22.99
2022-09-21T10:48:37.576Z,23.33
2022-09-21T10:49:37.587Z,23.69
2022-09-21T10:50:37.466Z,23.61
2022-09-21T10:51:37.606Z,23.66
2022-09-21T10:52:37.596Z,23.76
2022-09-21T10:53:37.438Z,23.45
2022-09-21T10:54:37.615Z,23.13
2022-09-21T10:55:40.845Z,22.91
2022-09-21T10:56:37.645Z,22.92
2022-09-21T10:57:37.835Z,22.98
2022-09-21T10:58:37.425Z,23.17
2022-09-21T10:59:37.425Z,23.56
2022-09-21T11:00:37.856Z,23.88
2022-09-21T11:01:37.894Z,23.84
2022-09-21T11:02:37.506Z,23.84
2022-09-21T11:03:37.468Z,23.15
2022-09-21T11:04:37.712Z,22.85
2022-09-21T11:05:37.896Z,22.59
2022-09-21T11:06:37.897Z,21.58
2022-09-21T11:07:37.915Z,21.98
2022-09-21T11:08:37.411Z,22.23
2022-09-21T11:09:37.504Z,22.53
2022-09-21T11:10:37.535Z,22.59
2022-09-21T11:11:37.924Z,22.81
2022-09-21T11:12:37.305Z,23.01
2022-09-21T11:13:37.955Z,22.95
2022-09-21T11:14:38.144Z,22.99
2022-09-21T11:15:37.791Z,23.29
2022-09-21T11:16:37.355Z,23.13
2022-09-21T11:17:37.564Z,22.28
2022-09-21T11:18:38.184Z,22.25
2022-09-21T11:19:37.990Z,22.67
2022-09-21T11:20:37.574Z,23.25
2022-09-21T11:21:37.234Z,23.61
2022-09-21T11:22:37.394Z,24.01
2022-09-21T11:23:37.278Z,24.33
2022-09-21T11:24:37.224Z,24.31
2022-09-21T11:25:37.253Z,23.74
2022-09-21T11:26:37.254Z,22.70
2022-09-21T11:27:37.468Z,22.28
2022-09-21T11:28:37.572Z,21.59
2022-09-21T11:29:37.223Z,21.44
2022-09-21T11:30:37.260Z,21.94
2022-09-21T11:31:37.235Z,22.13
2022-09-21T11:32:37.248Z,21.51
2022-09-21T11:33:37.675Z,21.13
2022-09-21T11:34:37.693Z,21.08
2022-09-21T11:35:37.711Z,20.74
2022-09-21T11:36:37.924Z,21.19
2022-09-21T11:37:37.963Z,21.50
2022-09-21T11:38:38.800Z,21.29
2022-09-21T11:39:37.154Z,21.26
2022-09-21T11:40:37.142Z,20.92
2022-09-21T11:41:37.123Z,21.25
2022-09-21T11:42:37.115Z,21.75
2022-09-21T11:43:37.100Z,22.13
2022-09-21T11:44:37.104Z,22.64
2022-09-21T11:45:37.123Z,23.04
2022-09-21T11:46:37.168Z,23.07
2022-09-21T11:47:37.162Z,22.83
2022-09-21T11:48:37.154Z,22.61
2022-09-21T11:49:37.174Z,22.18
2022-09-21T11:50:37.182Z,21.69
2022-09-21T11:51:37.165Z,21.77
2022-09-21T11:52:37.214Z,22.06
2022-09-21T11:53:37.013Z,22.09
2022-09-21T11:54:37.226Z,21.63
2022-09-21T11:55:37.243Z,21.34
2022-09-21T11:56:36.993Z,20.65
2022-09-21T11:57:37.004Z,19.49
2022-09-21T11:58:37.025Z,18.60
2022-09-21T11:59:37.014Z,17.97
2022-09-21T12:00:37.045Z,17.96
2022-09-21T12:01:37.243Z,18.05
2022-09-21T12:02:37.435Z,18.08
2022-09-21T12:03:37.245Z,18.02
2022-09-21T12:04:37.021Z,17.93
2022-09-21T12:05:37.383Z,17.65
2022-09-21T12:06:37.253Z,17.31
2022-09-21T12:07:37.402Z,16.91
2022-09-21T12:08:37.433Z,16.67
2022-09-21T12:09:37.074Z,16.55
2022-09-21T12:10:37.443Z,16.55
2022-09-21T12:11:37.456Z,16.54
2022-09-21T12:12:37.472Z,16.57
2022-09-21T12:13:36.892Z,16.62
2022-09-21T12:15:37.311Z,16.62
2022-09-21T12:16:37.633Z,16.61
2022-09-21T12:17:36.932Z,16.59
2022-09-21T12:18:36.942Z,16.57
2022-09-21T12:19:36.842Z,16.62
2022-09-21T12:20:36.872Z,16.65
2022-09-21T12:21:36.839Z,16.61
2022-09-21T12:22:36.822Z,16.52
2022-09-21T12:23:36.963Z,16.70
2022-09-21T12:24:36.971Z,16.65
2022-09-21T12:25:36.971Z,16.59
2022-09-21T12:26:36.782Z,16.52
2022-09-21T12:27:36.782Z,16.57
2022-09-21T12:28:36.792Z,16.57
2022-09-21T12:29:37.003Z,16.57
2022-09-21T12:30:37.112Z,16.64
2022-09-21T12:31:37.018Z,16.65
2022-09-21T12:32:36.752Z,16.62
2022-09-21T12:33:36.830Z,16.59
2022-09-21T12:34:36.830Z,16.49
2022-09-21T12:35:36.844Z,16.52
2022-09-21T12:36:39.512Z,16.65
2022-09-21T12:37:36.851Z,16.84
2022-09-21T12:38:36.897Z,16.97
2022-09-21T12:39:36.725Z,17.06
2022-09-21T12:40:37.146Z,17.19
2022-09-21T12:41:37.173Z,17.28
2022-09-21T12:42:37.091Z,17.31
2022-09-21T12:43:38.142Z,17.32
2022-09-21T12:44:37.107Z,17.34
2022-09-21T12:45:36.889Z,17.34
2022-09-21T12:46:37.110Z,17.22
2022-09-21T12:47:37.120Z,17.28
2022-09-21T12:48:36.708Z,17.22
2022-09-21T12:49:37.171Z,17.14
2022-09-21T12:50:36.748Z,17.01
2022-09-21T12:51:36.941Z,17.06
2022-09-21T12:52:37.201Z,17.17
2022-09-21T12:53:36.800Z,17.31
2022-09-21T12:54:36.800Z,17.43
2022-09-21T12:55:36.650Z,17.57
2022-09-21T12:56:37.382Z,17.57
2022-09-21T12:58:37.191Z,17.50
2022-09-21T12:59:37.401Z,17.59
2022-09-21T13:00:37.407Z,17.65
2022-09-21T13:01:36.684Z,17.63
2022-09-21T13:02:37.192Z,17.69
2022-09-21T13:03:36.611Z,17.75
2022-09-21T13:04:37.021Z,17.81
2022-09-21T13:05:37.279Z,17.87
2022-09-21T13:06:36.641Z,17.97
2022-09-21T13:07:37.249Z,18.03
2022-09-21T13:08:36.843Z,18.06
2022-09-21T13:09:36.847Z,18.06